Time;durP1;ratioP1;P1;durP2;ratioP2;P2;SDS_P1;SDS_P2;PMS_P1;PMS_P2;Temp;Humidity;BMP_temperature;BMP_pressure;BME280_temperature;BME280_humidity;BME280_pressure;Samples;Min_cycle;Max_cycle;Signal;HPM_P1;HPM_P2
2024/02/13 00:01:58;;;;;;;2.07;1.97;;;7.50;99.90;;;;;;4998895;28;20470;-79
2024/02/13 00:04:26;;;;;;;5.17;3.00;;;7.50;99.90;;;;;;4997732;28;20473;-81
2024/02/13 00:06:56;;;;;;;3.63;1.97;;;7.60;99.90;;;;;;4998690;28;20521;-82
2024/02/13 00:09:24;;;;;;;2.20;2.00;;;7.70;99.90;;;;;;4994434;28;20827;-85
2024/02/13 00:11:53;;;;;;;4.23;2.20;;;7.70;99.90;;;;;;4997771;28;20527;-81
2024/02/13 00:14:23;;;;;;;3.23;1.93;;;7.70;99.90;;;;;;4997096;28;20925;-77
2024/02/13 00:16:51;;;;;;;2.77;1.90;;;7.70;99.90;;;;;;4994579;28;21260;-81
2024/02/13 00:19:20;;;;;;;1.90;1.80;;;7.70;99.90;;;;;;4996725;28;21019;-79
2024/02/13 00:21:48;;;;;;;2.73;1.97;;;7.70;99.90;;;;;;5002179;28;20450;-81
2024/02/13 00:24:16;;;;;;;3.07;2.50;;;7.70;99.90;;;;;;4995825;28;20450;-81
2024/02/13 00:26:46;;;;;;;3.10;2.30;;;7.70;99.90;;;;;;4981507;28;20462;-80
2024/02/13 00:29:14;;;;;;;3.50;2.73;;;7.70;99.90;;;;;;4996968;28;21044;-80
2024/02/13 00:31:45;;;;;;;1.97;1.77;;;7.70;99.90;;;;;;4997782;28;20512;-81
2024/02/13 00:34:13;;;;;;;2.17;1.97;;;7.70;99.90;;;;;;4996831;28;20549;-81
2024/02/13 00:36:41;;;;;;;3.70;2.20;;;7.90;99.90;;;;;;4996485;28;20566;-80
2024/02/13 00:39:09;;;;;;;4.03;1.87;;;7.80;99.90;;;;;;5001961;28;20472;-79
2024/02/13 00:41:38;;;;;;;2.27;2.07;;;7.90;99.90;;;;;;5000218;28;20457;-79
2024/02/13 00:44:06;;;;;;;4.90;2.10;;;7.90;99.90;;;;;;4998898;28;20464;-80
2024/02/13 00:46:35;;;;;;;2.90;1.90;;;7.80;99.90;;;;;;5001591;28;20549;-81
2024/02/13 00:49:04;;;;;;;3.73;2.77;;;7.80;99.90;;;;;;4998347;28;20497;-80
2024/02/13 00:51:33;;;;;;;5.73;1.90;;;7.80;99.90;;;;;;4998988;28;20689;-79
2024/02/13 00:54:01;;;;;;;3.80;2.10;;;7.80;99.90;;;;;;4999431;28;21129;-80
2024/02/13 00:56:29;;;;;;;1.70;1.60;;;7.90;99.90;;;;;;4998494;28;21021;-80
2024/02/13 00:59:03;;;;;;;4.30;3.27;;;7.90;99.90;;;;;;4994811;28;21194;-80
2024/02/13 01:01:32;;;;;;;4.57;2.07;;;7.80;99.90;;;;;;4990931;28;20449;-78
2024/02/13 01:04:00;;;;;;;2.42;1.88;;;7.80;99.90;;;;;;4996955;28;20806;-79
2024/02/13 01:06:30;;;;;;;2.30;1.97;;;7.90;99.90;;;;;;4999734;28;20466;-77
2024/02/13 01:08:58;;;;;;;3.53;2.00;;;7.80;99.90;;;;;;4993198;28;20470;-80
2024/02/13 01:11:26;;;;;;;3.97;2.13;;;7.80;99.90;;;;;;4991830;28;20466;-78
2024/02/13 01:13:55;;;;;;;5.23;2.13;;;7.70;99.90;;;;;;4994121;28;21007;-78
2024/02/13 01:16:23;;;;;;;2.97;2.20;;;7.70;99.90;;;;;;4995535;28;20481;-77
2024/02/13 01:18:51;;;;;;;2.53;1.90;;;7.70;99.90;;;;;;4991226;28;21048;-81
2024/02/13 01:21:22;;;;;;;4.87;2.07;;;7.70;99.90;;;;;;4998402;28;20462;-79
2024/02/13 01:23:51;;;;;;;5.93;2.23;;;7.70;99.90;;;;;;4998614;28;21096;-77
2024/02/13 01:26:20;;;;;;;1.93;1.80;;;7.70;99.90;;;;;;4997452;28;20525;-78
2024/02/13 01:28:48;;;;;;;2.20;2.00;;;7.70;99.90;;;;;;4985245;28;20500;-80
2024/02/13 01:31:16;;;;;;;5.03;2.43;;;7.70;99.90;;;;;;5001743;28;20480;-80
2024/02/13 01:33:45;;;;;;;4.43;2.00;;;7.70;99.90;;;;;;4998333;28;20457;-81
2024/02/13 01:36:13;;;;;;;4.07;2.10;;;7.80;99.90;;;;;;4997457;28;20485;-79
2024/02/13 01:38:41;;;;;;;2.30;2.10;;;7.80;99.90;;;;;;5000137;28;20473;-81
2024/02/13 01:41:11;;;;;;;4.20;1.70;;;7.70;99.90;;;;;;4999072;28;20520;-78
2024/02/13 01:43:40;;;;;;;4.40;1.80;;;7.70;99.90;;;;;;4983528;28;20462;-78
2024/02/13 01:46:09;;;;;;;3.73;2.10;;;7.70;99.90;;;;;;4998445;28;20497;-78
2024/02/13 01:48:38;;;;;;;4.63;1.90;;;7.70;99.90;;;;;;4996427;28;20466;-79
2024/02/13 01:51:08;;;;;;;1.90;1.73;;;7.60;99.90;;;;;;4997235;28;20962;-80
2024/02/13 01:53:36;;;;;;;4.60;1.83;;;7.70;99.90;;;;;;4992592;28;20939;-78
2024/02/13 01:56:07;;;;;;;4.27;2.40;;;7.80;99.90;;;;;;4996387;28;20497;-77
2024/02/13 01:58:38;;;;;;;2.40;2.17;;;7.70;99.90;;;;;;4995112;28;21033;-82
2024/02/13 02:01:07;;;;;;;3.47;2.33;;;7.70;99.90;;;;;;4999038;28;21059;-78
2024/02/13 02:03:36;;;;;;;2.60;2.00;;;7.70;99.90;;;;;;4997016;28;20477;-80
2024/02/13 02:06:05;;;;;;;2.50;1.97;;;7.70;99.90;;;;;;4996642;28;20557;-78
2024/02/13 02:08:34;;;;;;;2.20;2.10;;;7.70;99.90;;;;;;4991281;28;20718;-77
2024/02/13 02:11:02;;;;;;;2.67;1.80;;;7.80;99.90;;;;;;4993939;28;20464;-76
2024/02/13 02:13:32;;;;;;;2.93;1.87;;;7.80;99.90;;;;;;4998393;28;21010;-78
2024/02/13 02:16:01;;;;;;;2.03;1.83;;;7.70;99.90;;;;;;4999302;28;20557;-77
2024/02/13 02:18:30;;;;;;;4.27;1.97;;;7.70;99.90;;;;;;4999931;28;20552;-78
2024/02/13 02:20:58;;;;;;;2.00;1.40;;;7.80;99.90;;;;;;5001997;28;21097;-79
2024/02/13 02:23:27;;;;;;;2.17;1.97;;;7.80;99.90;;;;;;5000731;28;20461;-78
2024/02/13 02:25:56;;;;;;;2.50;1.97;;;7.80;99.90;;;;;;4997464;28;20648;-81
2024/02/13 02:28:25;;;;;;;2.00;1.80;;;7.90;99.90;;;;;;5002772;28;20508;-77
2024/02/13 02:30:54;;;;;;;2.00;1.90;;;7.90;99.90;;;;;;5002248;28;21008;-79
2024/02/13 02:33:22;;;;;;;3.73;1.90;;;7.80;99.90;;;;;;5003072;28;20536;-79
2024/02/13 02:35:51;;;;;;;7.80;2.57;;;7.80;99.90;;;;;;5002620;28;20485;-78
2024/02/13 02:38:20;;;;;;;8.60;2.03;;;7.80;99.90;;;;;;5000073;28;20898;-77
2024/02/13 02:40:49;;;;;;;4.30;2.10;;;7.80;99.90;;;;;;5004127;28;20453;-82
2024/02/13 02:43:20;;;;;;;3.80;1.87;;;7.90;99.90;;;;;;5002493;28;20449;-78
2024/02/13 02:45:48;;;;;;;4.50;1.83;;;7.90;99.90;;;;;;5001891;28;20465;-79
2024/02/13 02:48:18;;;;;;;4.57;2.00;;;7.90;99.90;;;;;;5003225;28;20478;-79
2024/02/13 02:50:46;;;;;;;2.97;1.87;;;7.90;99.90;;;;;;5003814;28;20461;-78
2024/02/13 02:53:15;;;;;;;1.63;1.53;;;8.00;99.90;;;;;;5003966;28;20461;-77
2024/02/13 02:55:48;;;;;;;2.20;1.70;;;7.90;99.90;;;;;;5000730;28;20485;-80
2024/02/13 02:58:16;;;;;;;5.83;1.80;;;7.80;1.00;;;;;;5000594;28;20480;-77
2024/02/13 03:00:45;;;;;;;3.53;2.07;;;7.80;1.00;;;;;;5001151;28;20453;-80
2024/02/13 03:03:14;;;;;;;2.00;1.80;;;7.70;1.00;;;;;;4998280;28;20457;-77
2024/02/13 03:05:43;;;;;;;1.80;1.67;;;7.80;1.00;;;;;;5000658;28;20588;-77
2024/02/13 03:08:12;;;;;;;2.60;1.60;;;7.80;1.00;;;;;;5002374;28;20531;-78
2024/02/13 03:10:41;;;;;;;2.93;1.80;;;7.70;1.00;;;;;;5004129;28;20474;-77
2024/02/13 03:13:12;;;;;;;1.90;1.50;;;7.60;1.00;;;;;;5004555;28;20470;-79
2024/02/13 03:15:40;;;;;;;2.83;2.20;;;7.70;1.00;;;;;;5003191;28;20493;-77
2024/02/13 03:18:10;;;;;;;2.97;1.60;;;7.50;1.00;;;;;;5002766;28;20470;-81
2024/02/13 03:20:40;;;;;;;3.00;1.90;;;7.50;1.00;;;;;;5004374;28;20449;-78
2024/02/13 03:23:08;;;;;;;2.03;1.67;;;7.40;1.00;;;;;;4998987;28;20470;-77
2024/02/13 03:25:36;;;;;;;2.73;2.03;;;7.40;1.00;;;;;;4999122;28;20489;-78
2024/02/13 03:28:05;;;;;;;1.90;1.77;;;7.40;3.90;;;;;;4998816;28;20466;-80
2024/02/13 03:30:33;;;;;;;3.80;1.93;;;7.30;2.30;;;;;;5002412;28;20518;-78
2024/02/13 03:33:01;;;;;;;2.50;2.07;;;7.30;1.00;;;;;;5001667;28;20509;-79
2024/02/13 03:35:31;;;;;;;2.80;2.60;;;7.30;1.00;;;;;;4999709;28;20485;-78
2024/02/13 03:38:00;;;;;;;3.63;1.80;;;7.30;1.00;;;;;;5001676;28;20500;-82
2024/02/13 03:40:29;;;;;;;4.90;2.43;;;7.30;1.00;;;;;;4999522;28;20536;-80
2024/02/13 03:42:57;;;;;;;4.00;2.00;;;7.30;1.00;;;;;;4978957;28;20457;-79
2024/02/13 03:45:25;;;;;;;2.70;1.90;;;7.30;1.00;;;;;;5003520;28;20457;-79
2024/02/13 03:47:53;;;;;;;5.47;2.03;;;7.30;1.00;;;;;;5000126;28;20474;-78
2024/02/13 03:50:22;;;;;;;2.10;1.70;;;7.40;1.00;;;;;;5000845;28;20447;-81
2024/02/13 03:52:52;;;;;;;2.80;1.70;;;7.30;1.00;;;;;;4998120;28;20454;-79
2024/02/13 03:55:20;;;;;;;3.73;2.20;;;7.20;1.00;;;;;;5000620;28;20441;-78
2024/02/13 03:57:49;;;;;;;1.97;1.77;;;7.30;1.00;;;;;;5001467;28;20500;-77
2024/02/13 04:00:18;;;;;;;2.97;2.50;;;7.30;1.00;;;;;;4996199;28;20458;-80
2024/02/13 04:02:46;;;;;;;1.87;1.63;;;7.30;1.00;;;;;;4999853;28;20857;-79
2024/02/13 04:05:14;;;;;;;1.73;1.63;;;7.30;1.00;;;;;;4997074;28;20469;-78
2024/02/13 04:07:44;;;;;;;2.20;1.50;;;7.10;1.00;;;;;;5000125;28;20474;-79
2024/02/13 04:10:13;;;;;;;4.63;2.73;;;7.20;1.00;;;;;;4999032;28;20972;-77
2024/02/13 04:12:43;;;;;;;2.10;1.90;;;7.20;1.00;;;;;;4996656;28;20460;-79
2024/02/13 04:15:13;;;;;;;2.97;2.20;;;7.10;1.00;;;;;;4994161;28;20486;-76
2024/02/13 04:17:41;;;;;;;2.23;1.93;;;7.10;1.00;;;;;;4999222;28;20497;-76
2024/02/13 04:20:11;;;;;;;2.03;1.87;;;7.10;1.00;;;;;;4999712;28;21062;-78
2024/02/13 04:22:39;;;;;;;1.93;1.73;;;7.10;1.00;;;;;;5000547;28;20489;-77
2024/02/13 04:25:08;;;;;;;3.33;1.90;;;7.00;1.00;;;;;;5002289;28;21147;-78
2024/02/13 04:27:37;;;;;;;8.27;2.23;;;7.00;1.00;;;;;;4999538;28;21058;-77
2024/02/13 04:30:08;;;;;;;5.20;1.90;;;7.10;1.00;;;;;;4999556;28;20471;-82
2024/02/13 04:32:37;;;;;;;3.23;2.13;;;7.10;1.00;;;;;;4997867;28;21094;-80
2024/02/13 04:35:07;;;;;;;3.33;2.07;;;7.20;1.00;;;;;;4996964;28;20476;-80
2024/02/13 04:37:35;;;;;;;1.93;1.83;;;7.30;1.00;;;;;;4997630;28;21393;-78
2024/02/13 04:40:05;;;;;;;3.47;2.10;;;7.20;1.00;;;;;;4997418;28;20539;-80
2024/02/13 04:42:35;;;;;;;6.00;2.57;;;7.20;1.00;;;;;;4998151;28;20549;-78
2024/02/13 04:45:05;;;;;;;4.00;2.03;;;7.10;1.00;;;;;;4997968;28;20544;-78
2024/02/13 04:47:33;;;;;;;2.73;1.97;;;7.00;1.00;;;;;;4996823;28;20484;-78
2024/02/13 04:50:06;;;;;;;5.10;1.90;;;7.00;1.00;;;;;;5000734;28;20846;-78
2024/02/13 04:52:35;;;;;;;3.13;1.83;;;6.90;1.00;;;;;;4999702;28;20474;-78
2024/02/13 04:55:03;;;;;;;2.03;1.93;;;6.90;1.00;;;;;;5001605;28;20461;-78
2024/02/13 04:57:33;;;;;;;3.30;2.13;;;6.90;1.00;;;;;;4993873;28;21137;-81
2024/02/13 05:00:13;;;;;;;2.90;1.90;;;6.80;1.00;;;;;;4997404;28;20906;-77
2024/02/13 05:02:46;;;;;;;2.43;1.93;;;7.00;1.00;;;;;;4990490;28;20450;-78
2024/02/13 05:08:01;;;;;;;2.10;1.90;;;7.00;1.00;;;;;;4995020;28;20565;-79
2024/02/13 05:10:29;;;;;;;2.37;2.07;;;6.90;1.00;;;;;;4996424;28;20445;-80
2024/02/13 05:12:57;;;;;;;3.13;1.73;;;6.80;1.00;;;;;;4990833;28;20960;-82
2024/02/13 05:15:25;;;;;;;3.60;2.30;;;6.80;1.00;;;;;;4999122;28;20810;-79
2024/02/13 05:17:55;;;;;;;2.00;1.80;;;6.80;1.00;;;;;;4999797;28;20548;-78
2024/02/13 05:20:23;;;;;;;2.53;2.33;;;6.80;1.00;;;;;;4997212;28;20847;-78
2024/02/13 05:22:52;;;;;;;2.90;2.20;;;6.70;1.00;;;;;;4997613;28;20591;-82
2024/02/13 05:25:21;;;;;;;4.60;2.57;;;6.70;1.00;;;;;;4997835;28;20473;-78
2024/02/13 05:27:50;;;;;;;2.90;2.20;;;6.70;1.00;;;;;;4999396;28;20482;-78
2024/02/13 05:30:20;;;;;;;3.70;2.33;;;6.70;1.00;;;;;;4996587;28;20476;-77
2024/02/13 05:32:48;;;;;;;4.97;2.57;;;6.70;1.00;;;;;;4997239;28;20509;-78
2024/02/13 05:35:19;;;;;;;2.53;1.93;;;6.70;1.00;;;;;;4999195;28;20453;-78
2024/02/13 05:37:47;;;;;;;3.23;2.70;;;6.70;1.00;;;;;;4998392;28;20888;-80
2024/02/13 05:40:16;;;;;;;3.73;2.23;;;6.70;1.00;;;;;;5000827;28;20503;-79
2024/02/13 05:42:44;;;;;;;2.87;2.20;;;6.80;1.00;;;;;;4982314;28;20449;-82
2024/02/13 05:45:12;;;;;;;2.83;2.27;;;6.80;1.00;;;;;;4988740;28;20528;-78
2024/02/13 05:47:41;;;;;;;2.60;1.90;;;6.80;1.00;;;;;;4996335;28;20573;-82
2024/02/13 05:50:12;;;;;;;2.50;2.30;;;6.80;1.00;;;;;;4997900;28;20587;-77
2024/02/13 05:52:42;;;;;;;3.03;2.10;;;6.80;1.00;;;;;;4999983;28;20469;-79
2024/02/13 05:55:10;;;;;;;2.70;2.17;;;6.90;1.00;;;;;;4980724;28;20935;-78
2024/02/13 05:57:41;;;;;;;9.90;4.60;;;6.90;1.00;;;;;;5002199;28;20521;-77
2024/02/13 06:00:14;;;;;;;7.93;2.80;;;6.90;1.00;;;;;;4997526;28;20505;-77
2024/02/13 06:02:43;;;;;;;4.60;3.23;;;6.80;1.00;;;;;;4996284;28;20457;-77
2024/02/13 06:05:12;;;;;;;2.83;2.50;;;6.90;1.00;;;;;;4998203;28;20520;-82
2024/02/13 06:07:43;;;;;;;3.90;2.83;;;6.90;12.90;;;;;;4992365;28;20958;-77
2024/02/13 06:10:11;;;;;;;5.33;2.77;;;6.80;69.60;;;;;;4996520;28;21295;-81
2024/02/13 06:12:39;;;;;;;3.90;3.30;;;6.80;65.80;;;;;;4997724;28;20457;-80
2024/02/13 06:15:09;;;;;;;4.57;3.10;;;6.70;99.90;;;;;;5000329;28;20453;-78
2024/02/13 06:17:37;;;;;;;2.73;2.53;;;6.70;99.90;;;;;;5000069;28;20481;-80
2024/02/13 06:20:08;;;;;;;3.03;2.57;;;6.80;59.20;;;;;;4997628;28;20501;-79
2024/02/13 06:22:36;;;;;;;2.57;2.37;;;6.80;51.20;;;;;;4999988;28;20504;-78
2024/02/13 06:25:11;;;;;;;4.10;2.40;;;6.90;57.30;;;;;;4999651;28;20516;-80
2024/02/13 06:27:39;;;;;;;2.30;2.20;;;7.00;45.00;;;;;;4999213;28;20469;-78
2024/02/13 06:30:08;;;;;;;3.17;1.83;;;7.00;1.00;;;;;;5000455;28;20473;-80
2024/02/13 06:32:38;;;;;;;5.07;1.83;;;7.10;1.00;;;;;;4998244;28;20461;-77
2024/02/13 06:35:06;;;;;;;4.70;2.40;;;7.00;1.00;;;;;;4997550;28;20576;-81
2024/02/13 06:37:37;;;;;;;8.50;2.57;;;7.00;1.00;;;;;;4999951;28;20489;-79
2024/02/13 06:40:08;;;;;;;2.57;2.43;;;7.00;9.10;;;;;;4999896;28;20460;-79
2024/02/13 06:42:36;;;;;;;2.10;2.00;;;7.00;15.10;;;;;;5000265;28;20545;-79
2024/02/13 06:45:09;;;;;;;3.03;2.83;;;6.90;6.50;;;;;;5001345;28;20450;-79
2024/02/13 06:47:38;;;;;;;4.83;2.57;;;6.90;8.20;;;;;;5001314;28;20473;-79
2024/02/13 06:50:11;;;;;;;6.00;3.00;;;7.00;11.40;;;;;;5002337;28;20462;-80
2024/02/13 06:52:41;;;;;;;3.43;2.50;;;7.00;21.20;;;;;;5002851;28;20961;-79
2024/02/13 06:55:10;;;;;;;2.70;2.50;;;7.00;12.00;;;;;;5003885;28;20489;-79
2024/02/13 06:57:39;;;;;;;2.57;2.37;;;7.00;17.40;;;;;;4995583;28;20482;-79
2024/02/13 07:00:08;;;;;;;6.40;4.97;;;6.90;7.20;;;;;;5004193;28;20500;-78
2024/02/13 07:02:36;;;;;;;4.03;3.70;;;6.90;97.40;;;;;;5006903;28;20464;-80
2024/02/13 07:05:06;;;;;;;6.80;3.10;;;6.90;24.30;;;;;;5008011;28;20503;-80
2024/02/13 07:07:34;;;;;;;5.07;2.90;;;6.90;14.80;;;;;;5004698;28;20463;-78
2024/02/13 07:10:16;;;;;;;2.90;2.70;;;7.00;70.90;;;;;;4999648;28;20449;-78
2024/02/13 07:12:45;;;;;;;2.87;2.67;;;7.00;95.20;;;;;;5003351;28;20529;-79
2024/02/13 07:15:13;;;;;;;4.03;2.60;;;7.10;23.30;;;;;;5005656;28;20452;-78
2024/02/13 07:17:41;;;;;;;3.57;2.33;;;7.20;21.70;;;;;;5002074;28;20469;-80
2024/02/13 07:20:26;;;;;;;5.10;2.60;;;7.20;1.00;;;;;;4998904;28;20450;-77
2024/02/13 07:22:55;;;;;;;2.60;2.40;;;7.20;1.00;;;;;;5003051;28;20446;-78
2024/02/13 07:25:24;;;;;;;4.43;2.40;;;7.10;1.00;;;;;;5003533;28;20450;-81
2024/02/13 07:27:53;;;;;;;2.60;2.40;;;7.30;1.00;;;;;;5005428;28;20481;-79
2024/02/13 07:30:21;;;;;;;4.70;2.80;;;7.40;1.00;;;;;;5003634;28;20564;-80
2024/02/13 07:32:50;;;;;;;3.33;3.13;;;7.40;1.00;;;;;;5006077;28;20488;-81
2024/02/13 07:35:20;;;;;;;5.80;3.37;;;7.40;1.00;;;;;;5005398;28;21252;-79
2024/02/13 07:37:48;;;;;;;2.60;2.30;;;7.50;1.00;;;;;;5002840;28;20684;-82
2024/02/13 07:40:16;;;;;;;3.40;2.30;;;7.60;1.00;;;;;;4987207;28;21055;-79
2024/02/13 07:42:46;;;;;;;2.23;2.10;;;7.60;1.00;;;;;;5005761;28;20466;-78
2024/02/13 07:45:14;;;;;;;2.70;2.27;;;7.70;1.00;;;;;;5004643;28;20483;-79
2024/02/13 07:47:42;;;;;;;4.33;2.30;;;7.70;1.00;;;;;;5002317;28;21003;-79
2024/02/13 07:50:11;;;;;;;3.07;2.07;;;7.70;1.00;;;;;;5000838;28;20461;-78
2024/02/13 07:52:39;;;;;;;4.03;2.37;;;8.00;1.00;;;;;;5003161;28;20521;-78
2024/02/13 07:55:08;;;;;;;3.87;2.63;;;8.30;1.00;;;;;;4985886;28;20552;-79
2024/02/13 07:57:38;;;;;;;3.63;2.00;;;8.60;1.00;;;;;;4995857;28;20481;-80
2024/02/13 08:00:10;;;;;;;3.97;2.50;;;8.90;1.00;;;;;;4998927;28;20512;-79
2024/02/13 08:02:38;;;;;;;3.40;2.23;;;9.10;1.00;;;;;;5000110;28;20875;-80
2024/02/13 08:05:07;;;;;;;2.53;2.00;;;9.40;1.00;;;;;;5001705;28;20437;-82
2024/02/13 08:07:35;;;;;;;3.00;2.40;;;9.60;99.90;;;;;;4999142;28;20467;-84
2024/02/13 08:10:06;;;;;;;3.00;2.70;;;9.80;99.90;;;;;;5002288;28;20460;-78
2024/02/13 08:12:34;;;;;;;2.93;2.07;;;10.00;99.90;;;;;;5003531;28;20520;-77
2024/02/13 08:15:03;;;;;;;5.50;2.80;;;10.00;99.90;;;;;;5005430;28;21284;-78
2024/02/13 08:17:33;;;;;;;4.43;3.30;;;10.00;99.90;;;;;;5004614;28;20854;-79
2024/02/13 08:20:03;;;;;;;3.23;2.00;;;10.00;99.90;;;;;;5003563;28;20469;-80
2024/02/13 08:22:32;;;;;;;3.60;2.40;;;10.10;99.90;;;;;;4999792;28;20461;-79
2024/02/13 08:25:00;;;;;;;3.03;2.10;;;10.20;99.90;;;;;;5000874;28;20438;-80
2024/02/13 08:27:29;;;;;;;2.80;2.07;;;10.40;99.90;;;;;;4999934;28;20539;-79
2024/02/13 08:29:57;;;;;;;3.13;2.53;;;10.80;99.90;;;;;;5002071;28;20937;-82
2024/02/13 08:32:26;;;;;;;2.87;2.67;;;11.00;99.90;;;;;;5000708;28;20499;-78
2024/02/13 08:34:58;;;;;;;2.10;2.00;;;11.40;99.90;;;;;;5002815;28;20537;-79
2024/02/13 08:37:28;;;;;;;3.77;2.20;;;11.60;99.90;;;;;;4999190;28;20482;-80
2024/02/13 08:39:57;;;;;;;2.00;1.90;;;12.00;99.90;;;;;;5002356;28;20565;-80
2024/02/13 08:42:25;;;;;;;2.43;2.00;;;12.10;99.90;;;;;;4981308;28;20452;-79
2024/02/13 08:44:56;;;;;;;2.20;2.10;;;12.40;99.90;;;;;;5002014;28;20449;-81
2024/02/13 08:47:24;;;;;;;7.00;2.80;;;12.40;99.90;;;;;;4997430;28;20458;-83
2024/02/13 08:49:52;;;;;;;2.37;2.17;;;12.40;99.90;;;;;;4990394;28;20469;-81
2024/02/13 08:52:23;;;;;;;4.57;2.20;;;12.70;99.90;;;;;;4998851;28;20482;-80
2024/02/13 08:54:51;;;;;;;4.17;2.67;;;12.90;99.90;;;;;;5002900;28;20477;-79
2024/02/13 08:57:19;;;;;;;3.10;2.73;;;13.00;99.90;;;;;;4999329;28;20620;-79
2024/02/13 08:59:48;;;;;;;5.33;2.57;;;12.70;99.90;;;;;;5002123;28;20489;-81
2024/02/13 09:02:17;;;;;;;2.63;2.43;;;12.30;99.90;;;;;;4987505;28;20520;-80
2024/02/13 09:04:48;;;;;;;3.73;2.03;;;12.00;99.90;;;;;;5002289;28;20468;-80
2024/02/13 09:07:16;;;;;;;2.40;2.20;;;11.90;99.90;;;;;;5000666;28;20473;-79
2024/02/13 09:09:45;;;;;;;3.73;2.70;;;11.70;99.90;;;;;;4998150;28;20461;-82
2024/02/13 09:12:14;;;;;;;4.50;2.60;;;11.80;99.90;;;;;;4996168;28;21131;-78
2024/02/13 09:14:42;;;;;;;3.63;2.50;;;12.20;99.90;;;;;;5000256;28;20523;-78
2024/02/13 09:17:10;;;;;;;2.27;2.00;;;12.80;99.90;;;;;;4994713;28;20481;-79
2024/02/13 09:19:42;;;;;;;2.70;2.17;;;13.20;99.90;;;;;;5000549;28;20475;-78
2024/02/13 09:22:13;;;;;;;2.10;2.00;;;13.10;99.90;;;;;;5000596;28;20544;-80
2024/02/13 09:24:45;;;;;;;4.20;2.70;;;13.10;99.90;;;;;;4998299;28;20453;-78
2024/02/13 09:27:14;;;;;;;3.60;2.50;;;13.10;99.90;;;;;;5000216;28;20537;-78
2024/02/13 09:29:43;;;;;;;2.87;2.17;;;13.30;99.90;;;;;;5002106;28;20461;-78
2024/02/13 09:32:11;;;;;;;3.93;1.80;;;13.90;99.90;;;;;;4998134;28;20445;-80
2024/02/13 09:34:40;;;;;;;2.33;1.90;;;14.40;99.90;;;;;;5000421;28;22002;-79
2024/02/13 09:37:09;;;;;;;4.23;3.10;;;15.10;99.90;;;;;;5002735;28;20462;-81
2024/02/13 09:39:38;;;;;;;3.60;1.80;;;16.30;99.90;;;;;;5000828;28;20485;-80
2024/02/13 09:42:07;;;;;;;6.97;2.23;;;16.90;99.90;;;;;;5002099;28;20908;-81
2024/02/13 09:44:37;;;;;;;1.97;1.87;;;17.50;99.90;;;;;;4998689;28;20466;-80
2024/02/13 09:47:06;;;;;;;2.80;2.10;;;18.00;99.90;;;;;;4998587;28;20469;-79
2024/02/13 09:49:35;;;;;;;3.00;1.70;;;18.40;99.90;;;;;;4999840;28;20469;-79
2024/02/13 09:52:11;;;;;;;2.50;2.20;;;18.40;99.90;;;;;;4999819;28;20460;-79
2024/02/13 09:54:44;;;;;;;2.23;1.90;;;18.40;99.90;;;;;;4998498;28;20464;-80
2024/02/13 09:57:13;;;;;;;2.30;1.93;;;18.30;99.90;;;;;;4999362;28;20458;-80
2024/02/13 09:59:44;;;;;;;2.00;1.90;;;18.10;99.90;;;;;;4981805;28;20471;-81
2024/02/13 10:02:14;;;;;;;1.93;1.83;;;18.10;99.90;;;;;;4998704;28;21013;-80
2024/02/13 10:04:44;;;;;;;2.53;2.03;;;17.70;99.90;;;;;;4999277;28;20462;-80
2024/02/13 10:07:12;;;;;;;2.73;1.93;;;17.30;99.90;;;;;;4998920;28;20450;-80
2024/02/13 10:09:41;;;;;;;4.23;2.47;;;17.70;99.90;;;;;;4999413;28;20464;-80
2024/02/13 10:12:13;;;;;;;1.83;1.70;;;18.30;99.90;;;;;;4997602;28;20542;-83
2024/02/13 10:14:42;;;;;;;2.13;1.83;;;18.40;99.90;;;;;;4996936;28;20522;-80
2024/02/13 10:17:11;;;;;;;2.20;2.00;;;18.80;99.90;;;;;;4993760;28;20496;-80
2024/02/13 10:19:39;;;;;;;2.07;1.97;;;19.60;99.90;;;;;;4996078;28;20453;-79
2024/02/13 10:22:09;;;;;;;2.60;2.13;;;20.10;99.90;;;;;;4998580;28;20553;-79
2024/02/13 10:24:38;;;;;;;2.20;1.70;;;20.50;99.90;;;;;;4995504;28;20999;-80
2024/02/13 10:27:09;;;;;;;1.87;1.77;;;20.60;99.90;;;;;;4998297;28;20466;-81
2024/02/13 10:29:45;;;;;;;1.93;1.70;;;20.90;99.90;;;;;;4997621;28;20467;-80
2024/02/13 10:32:13;;;;;;;4.77;2.00;;;21.20;99.90;;;;;;4994700;28;20500;-80
2024/02/13 10:34:41;;;;;;;2.00;1.90;;;22.00;99.90;;;;;;5000515;28;20457;-80
2024/02/13 10:37:10;;;;;;;2.93;1.70;;;22.30;99.90;;;;;;5007138;28;20450;-80
2024/02/13 10:39:46;;;;;;;2.60;1.80;;;22.30;99.90;;;;;;5003607;28;20445;-79
2024/02/13 10:42:21;;;;;;;2.50;2.00;;;22.90;99.90;;;;;;5002962;28;21044;-80
2024/02/13 10:44:52;;;;;;;4.00;2.40;;;24.00;99.90;;;;;;5002396;28;20462;-80
2024/02/13 10:47:23;;;;;;;1.90;1.70;;;24.50;99.90;;;;;;5001377;28;20488;-81
2024/02/13 10:49:53;;;;;;;3.50;1.87;;;25.00;99.90;;;;;;5000100;28;21157;-81
2024/02/13 10:52:23;;;;;;;3.37;1.73;;;26.50;99.90;;;;;;4997642;28;20467;-79
2024/02/13 10:54:55;;;;;;;3.50;2.03;;;24.90;99.90;;;;;;4999541;28;21182;-82
2024/02/13 10:57:24;;;;;;;2.60;2.07;;;24.60;99.90;;;;;;4998957;28;21003;-78
2024/02/13 10:59:54;;;;;;;1.40;1.30;;;26.10;99.90;;;;;;5001963;28;20459;-80
2024/02/13 11:02:23;;;;;;;3.17;1.10;;;27.60;99.90;;;;;;4996803;28;20452;-80
2024/02/13 11:04:53;;;;;;;1.60;1.50;;;27.80;99.90;;;;;;5004413;28;20449;-79
2024/02/13 11:07:21;;;;;;;2.00;1.90;;;27.20;99.90;;;;;;5000804;28;20470;-80
2024/02/13 11:09:49;;;;;;;1.60;1.50;;;27.00;99.90;;;;;;4994053;28;20458;-80
2024/02/13 11:12:18;;;;;;;2.20;1.40;;;25.40;99.90;;;;;;4999838;28;20546;-81
2024/02/13 11:14:48;;;;;;;1.90;1.57;;;24.40;99.90;;;;;;4999653;28;20455;-86
2024/02/13 11:17:18;;;;;;;2.67;1.60;;;22.20;99.90;;;;;;5002533;28;21004;-81
2024/02/13 11:19:49;;;;;;;2.87;1.70;;;20.60;99.90;;;;;;4997073;28;20547;-82
2024/02/13 11:22:36;;;;;;;2.03;1.60;;;19.00;99.90;;;;;;5002858;28;20483;-79
2024/02/13 11:25:08;;;;;;;2.83;1.57;;;17.80;99.20;;;;;;4989685;28;20451;-80
2024/02/13 11:27:40;;;;;;;1.53;1.43;;;17.10;90.20;;;;;;4999490;28;20484;-81
2024/02/13 11:30:09;;;;;;;1.60;1.50;;;20.00;99.90;;;;;;4999182;28;20461;-80
2024/02/13 11:32:39;;;;;;;1.40;1.30;;;22.70;99.90;;;;;;4996912;28;20463;-81
2024/02/13 11:35:10;;;;;;;2.30;1.50;;;24.60;99.90;;;;;;5000545;28;20455;-81
2024/02/13 11:37:42;;;;;;;1.47;1.37;;;25.60;99.90;;;;;;4998822;28;20911;-80
2024/02/13 11:40:12;;;;;;;1.17;1.10;;;25.40;99.90;;;;;;5001537;28;20462;-81
2024/02/13 11:42:42;;;;;;;2.07;1.20;;;24.10;99.90;;;;;;4996894;28;20447;-81
2024/02/13 11:45:20;;;;;;;2.10;1.20;;;21.70;99.90;;;;;;4997390;28;20556;-80
2024/02/13 11:47:50;;;;;;;2.10;1.53;;;20.00;99.90;;;;;;4999871;28;20522;-80
2024/02/13 11:50:18;;;;;;;2.87;1.20;;;19.00;99.90;;;;;;4999167;28;20454;-79
2024/02/13 11:52:48;;;;;;;1.53;1.43;;;18.30;95.40;;;;;;4998099;28;20458;-79
2024/02/13 11:55:17;;;;;;;1.60;1.40;;;17.90;92.90;;;;;;4997418;28;20489;-80
2024/02/13 11:57:45;;;;;;;2.80;1.50;;;17.40;89.00;;;;;;4997369;28;20479;-79
2024/02/13 12:00:18;;;;;;;4.03;1.70;;;17.20;87.50;;;;;;4997432;28;20463;-82
2024/02/13 12:02:54;;;;;;;2.20;1.30;;;17.10;84.90;;;;;;4997612;28;21186;-79
2024/02/13 12:05:24;;;;;;;1.30;1.30;;;17.00;83.80;;;;;;4994650;28;20458;-79
2024/02/13 12:07:53;;;;;;;1.80;1.70;;;16.60;77.70;;;;;;4993236;28;20462;-81
2024/02/13 12:10:22;;;;;;;1.37;1.27;;;16.60;78.30;;;;;;4997916;28;21366;-82
2024/02/13 12:12:52;;;;;;;1.83;1.30;;;16.70;79.40;;;;;;4999366;28;20449;-81
2024/02/13 12:15:22;;;;;;;1.27;1.20;;;16.70;80.20;;;;;;4996374;28;20454;-80
2024/02/13 12:17:58;;;;;;;1.30;1.30;;;16.50;77.20;;;;;;4995031;28;21109;-80
2024/02/13 12:20:29;;;;;;;1.60;1.50;;;16.50;80.00;;;;;;4997400;28;20531;-81
2024/02/13 12:22:59;;;;;;;2.73;1.40;;;16.30;74.30;;;;;;4999080;28;20466;-79
2024/02/13 12:25:28;;;;;;;1.40;1.30;;;16.20;73.80;;;;;;4997661;28;20461;-79
2024/02/13 12:28:01;;;;;;;1.83;1.23;;;16.20;74.90;;;;;;4997256;28;20490;-81
2024/02/13 12:30:29;;;;;;;1.47;1.30;;;16.10;73.70;;;;;;4998118;28;20476;-79
2024/02/13 12:32:59;;;;;;;2.83;1.30;;;16.20;75.40;;;;;;4978978;28;20450;-80
2024/02/13 12:35:33;;;;;;;1.40;1.30;;;16.20;75.30;;;;;;4996163;28;20438;-80
2024/02/13 12:38:13;;;;;;;2.40;1.30;;;16.10;73.20;;;;;;4996192;28;21038;-80
2024/02/13 12:40:42;;;;;;;1.17;1.13;;;15.80;70.60;;;;;;4994974;28;20563;-81
2024/02/13 12:43:15;;;;;;;1.40;1.30;;;15.70;69.10;;;;;;4998462;28;20556;-80
2024/02/13 12:45:43;;;;;;;1.60;1.50;;;15.60;65.90;;;;;;4997919;28;20875;-80
2024/02/13 12:48:13;;;;;;;1.30;1.30;;;15.70;68.10;;;;;;4997948;28;20474;-82
2024/02/13 12:50:42;;;;;;;1.30;1.30;;;15.90;72.30;;;;;;4999878;28;21106;-81
2024/02/13 12:53:11;;;;;;;1.87;1.40;;;15.90;70.80;;;;;;4994787;28;20547;-79
2024/02/13 12:55:40;;;;;;;1.20;1.20;;;15.90;71.10;;;;;;4996789;28;20552;-80
2024/02/13 12:58:11;;;;;;;1.27;1.27;;;15.80;69.00;;;;;;4995762;28;21046;-81
2024/02/13 13:00:45;;;;;;;1.67;1.30;;;15.80;67.70;;;;;;4993988;28;21313;-81
2024/02/13 13:03:19;;;;;;;1.50;1.50;;;15.80;67.30;;;;;;4993484;28;20481;-80
2024/02/13 13:05:49;;;;;;;1.30;1.20;;;15.90;69.70;;;;;;4991560;28;20458;-80
2024/02/13 13:08:22;;;;;;;1.23;1.23;;;15.80;67.70;;;;;;4994733;28;20470;-79
2024/02/13 13:10:51;;;;;;;1.30;1.20;;;15.80;66.40;;;;;;4995561;28;20458;-79